Time;durP1;ratioP1;P1;durP2;ratioP2;P2;SDS_P1;SDS_P2;PMS_P1;PMS_P2;Temp;Humidity;BMP_temperature;BMP_pressure;BME280_temperature;BME280_humidity;BME280_pressure;Samples;Min_cycle;Max_cycle;Signal;HPM_P1;HPM_P2
2021/03/01 00:00:06;;;;;;;21.08;9.73;;;2.30;99.90;;;;;;5014269;28;20041;-75
2021/03/01 00:02:31;;;;;;;22.02;9.68;;;2.20;99.90;;;;;;5005956;28;20341;-76
2021/03/01 00:04:57;;;;;;;21.17;9.40;;;2.20;99.90;;;;;;5005292;28;20619;-76
2021/03/01 00:07:22;;;;;;;22.25;10.77;;;2.10;99.90;;;;;;5005692;28;20034;-76
2021/03/01 00:09:48;;;;;;;23.60;8.68;;;2.20;99.90;;;;;;5003278;28;20042;-76
2021/03/01 00:12:13;;;;;;;22.40;9.15;;;2.20;99.90;;;;;;5004778;28;20030;-76
2021/03/01 00:14:39;;;;;;;23.08;9.90;;;2.20;99.90;;;;;;5004629;28;20025;-77
2021/03/01 00:17:04;;;;;;;22.70;9.45;;;2.10;99.90;;;;;;5007154;28;20033;-77
2021/03/01 00:19:30;;;;;;;23.73;9.27;;;2.10;99.90;;;;;;5003381;28;20044;-77
2021/03/01 00:21:55;;;;;;;22.52;9.75;;;2.10;99.90;;;;;;5008840;28;20523;-77
2021/03/01 00:24:21;;;;;;;18.60;9.57;;;2.00;99.90;;;;;;5004571;28;20156;-77
2021/03/01 00:26:47;;;;;;;19.30;9.23;;;2.00;99.90;;;;;;5003865;28;20445;-77
2021/03/01 00:29:12;;;;;;;24.58;10.23;;;2.00;99.90;;;;;;5004824;28;20088;-77
2021/03/01 00:31:38;;;;;;;21.17;9.30;;;2.00;99.90;;;;;;5003881;28;20030;-76
2021/03/01 00:34:03;;;;;;;26.10;10.43;;;2.00;99.90;;;;;;5005278;28;20155;-76
2021/03/01 00:36:29;;;;;;;26.30;10.73;;;2.00;99.90;;;;;;5009822;28;20542;-76
2021/03/01 00:38:54;;;;;;;21.35;9.73;;;2.00;99.90;;;;;;5011233;28;20506;-76
2021/03/01 00:41:20;;;;;;;23.42;9.82;;;1.90;99.90;;;;;;5005578;28;20052;-76
2021/03/01 00:43:46;;;;;;;24.38;10.38;;;1.90;99.90;;;;;;5003948;28;20040;-76
2021/03/01 00:46:11;;;;;;;24.15;9.45;;;1.90;99.90;;;;;;5003821;28;20414;-76
2021/03/01 00:48:37;;;;;;;20.83;9.18;;;1.90;99.90;;;;;;5004024;28;20509;-76
2021/03/01 00:51:03;;;;;;;23.17;9.95;;;1.90;99.90;;;;;;5005574;28;20038;-76
2021/03/01 00:53:29;;;;;;;21.92;9.25;;;1.80;99.90;;;;;;5011722;28;20165;-76
2021/03/01 00:55:55;;;;;;;25.75;10.98;;;1.80;99.90;;;;;;5000888;28;20435;-76
2021/03/01 00:58:21;;;;;;;23.95;8.93;;;1.80;99.90;;;;;;5008426;28;20053;-77
2021/03/01 01:00:48;;;;;;;26.75;10.63;;;1.80;99.90;;;;;;5008255;28;20069;-76
2021/03/01 01:03:15;;;;;;;21.88;9.93;;;1.70;99.90;;;;;;5004160;28;20430;-76
2021/03/01 01:05:41;;;;;;;25.85;10.18;;;1.80;99.90;;;;;;5005862;28;20034;-76
2021/03/01 01:08:07;;;;;;;25.65;10.65;;;1.70;99.90;;;;;;5011527;28;20683;-77
2021/03/01 01:10:33;;;;;;;21.88;10.23;;;1.70;99.90;;;;;;5004863;28;20030;-77
2021/03/01 01:12:58;;;;;;;20.85;9.57;;;1.70;99.90;;;;;;5007973;28;20361;-76
2021/03/01 01:15:24;;;;;;;28.38;11.35;;;1.70;99.90;;;;;;5003973;28;20038;-76
2021/03/01 01:17:50;;;;;;;25.77;9.13;;;1.70;99.90;;;;;;5012945;28;20502;-77
2021/03/01 01:20:17;;;;;;;25.75;10.02;;;1.70;99.90;;;;;;5004484;28;20085;-77
2021/03/01 01:22:44;;;;;;;22.08;9.50;;;1.60;99.90;;;;;;5002205;28;20133;-77
2021/03/01 01:25:12;;;;;;;23.05;10.88;;;1.60;99.90;;;;;;5006162;28;20049;-76
2021/03/01 01:27:38;;;;;;;25.23;10.68;;;1.60;99.90;;;;;;5005614;28;20124;-77
2021/03/01 01:30:17;;;;;;;22.70;9.77;;;1.50;99.90;;;;;;5004642;28;20046;-76
2021/03/01 01:32:42;;;;;;;23.63;10.57;;;1.60;99.90;;;;;;5012550;28;20037;-76
2021/03/01 01:35:11;;;;;;;24.52;9.80;;;1.50;99.90;;;;;;5006353;28;20079;-76
2021/03/01 01:37:37;;;;;;;25.60;10.20;;;1.50;99.90;;;;;;5003851;28;20048;-77
2021/03/01 01:40:05;;;;;;;25.67;10.90;;;1.50;99.90;;;;;;5005030;28;20042;-76
2021/03/01 01:42:31;;;;;;;29.65;10.30;;;1.40;99.90;;;;;;5008541;28;20509;-76
2021/03/01 01:44:58;;;;;;;21.55;9.70;;;1.40;99.90;;;;;;5008484;28;20120;-76
2021/03/01 01:47:23;;;;;;;26.52;9.77;;;1.40;99.90;;;;;;5004584;28;20641;-75
2021/03/01 01:49:49;;;;;;;25.95;9.68;;;1.40;99.90;;;;;;5005625;28;20030;-76
2021/03/01 01:52:15;;;;;;;24.88;11.27;;;1.30;99.90;;;;;;5005676;28;20058;-76
2021/03/01 01:54:42;;;;;;;23.77;11.05;;;1.30;99.90;;;;;;5006521;28;20496;-76
2021/03/01 01:57:08;;;;;;;21.35;10.15;;;1.30;99.90;;;;;;5002922;28;20045;-77
2021/03/01 01:59:34;;;;;;;23.60;10.00;;;1.30;99.90;;;;;;5003482;28;20033;-77
2021/03/01 02:02:01;;;;;;;24.02;9.80;;;1.30;99.90;;;;;;5006113;28;20041;-77
2021/03/01 02:04:30;;;;;;;27.52;9.70;;;1.30;99.90;;;;;;5002209;28;20045;-76
2021/03/01 02:07:16;;;;;;;23.75;9.68;;;1.30;99.90;;;;;;5010969;28;20030;-76
2021/03/01 02:10:23;;;;;;;28.02;11.82;;;1.20;99.90;;;;;;5004342;28;20180;-75
2021/03/01 02:13:04;;;;;;;26.63;11.35;;;1.20;99.90;;;;;;5006429;28;20088;-76
2021/03/01 02:15:41;;;;;;;29.17;11.05;;;1.20;99.90;;;;;;5002325;28;20423;-76
2021/03/01 02:18:07;;;;;;;23.58;10.18;;;1.20;99.90;;;;;;5005782;28;20422;-76
2021/03/01 02:20:33;;;;;;;21.38;9.95;;;1.20;99.90;;;;;;5005456;28;20070;-76
2021/03/01 02:22:58;;;;;;;26.73;10.27;;;1.20;99.90;;;;;;5005372;28;20132;-76
2021/03/01 02:25:29;;;;;;;22.50;10.48;;;1.20;99.90;;;;;;5006491;28;20039;-76
2021/03/01 02:28:03;;;;;;;26.73;11.00;;;1.20;99.90;;;;;;5005517;28;20072;-77
2021/03/01 02:30:36;;;;;;;30.88;11.55;;;1.10;99.90;;;;;;5018741;28;20029;-76
2021/03/01 02:33:08;;;;;;;24.70;10.07;;;1.10;99.90;;;;;;5004969;28;20042;-75
2021/03/01 02:35:36;;;;;;;26.02;10.40;;;1.10;99.90;;;;;;5004955;28;20048;-76
2021/03/01 02:38:08;;;;;;;24.08;9.82;;;1.10;99.90;;;;;;5005186;28;20038;-77
2021/03/01 02:40:36;;;;;;;24.13;11.50;;;1.00;99.90;;;;;;5003592;28;20159;-78
2021/03/01 02:43:03;;;;;;;21.42;10.57;;;1.00;99.90;;;;;;5005303;28;20053;-76
2021/03/01 02:45:29;;;;;;;20.77;9.90;;;1.00;99.90;;;;;;5005296;28;20034;-76
2021/03/01 02:47:59;;;;;;;18.83;9.32;;;1.00;99.90;;;;;;5003390;28;20554;-78
2021/03/01 02:50:25;;;;;;;23.60;10.38;;;1.00;99.90;;;;;;5001360;28;20041;-76
2021/03/01 02:52:52;;;;;;;28.83;11.88;;;1.00;99.90;;;;;;5006486;28;20038;-76
2021/03/01 02:55:19;;;;;;;25.10;10.10;;;1.00;99.90;;;;;;5003869;28;20049;-76
2021/03/01 02:57:46;;;;;;;27.27;11.07;;;1.00;99.90;;;;;;5003062;28;20072;-77
2021/03/01 03:00:13;;;;;;;23.77;10.95;;;0.90;99.90;;;;;;5004180;28;20069;-76
2021/03/01 03:02:42;;;;;;;26.25;11.05;;;0.90;99.90;;;;;;5003743;28;20170;-76
2021/03/01 03:05:09;;;;;;;29.30;10.68;;;0.90;99.90;;;;;;5002951;28;20037;-76
2021/03/01 03:07:37;;;;;;;25.55;11.38;;;0.90;99.90;;;;;;5009595;28;20775;-77
2021/03/01 03:10:06;;;;;;;23.08;10.43;;;0.80;99.90;;;;;;5002123;28;20038;-77
2021/03/01 03:12:32;;;;;;;24.88;10.80;;;0.80;99.90;;;;;;5000825;28;20128;-77
2021/03/01 03:15:04;;;;;;;28.73;10.88;;;0.80;99.90;;;;;;5009007;28;20084;-77
2021/03/01 03:17:32;;;;;;;25.40;11.23;;;0.80;99.90;;;;;;5003334;28;20080;-77
2021/03/01 03:20:00;;;;;;;26.80;10.98;;;0.80;99.90;;;;;;5005591;28;20042;-76
2021/03/01 03:22:26;;;;;;;23.38;11.00;;;0.80;99.90;;;;;;5005401;28;20057;-75
2021/03/01 03:24:51;;;;;;;25.05;10.85;;;0.80;99.90;;;;;;5004951;28;20471;-76
2021/03/01 03:27:17;;;;;;;27.13;10.68;;;0.80;99.90;;;;;;5003883;28;22455;-76
2021/03/01 03:29:43;;;;;;;23.30;10.68;;;0.80;99.90;;;;;;5003913;28;20554;-76
2021/03/01 03:32:08;;;;;;;29.55;11.18;;;0.80;99.90;;;;;;5003607;28;20030;-76
2021/03/01 03:34:34;;;;;;;22.63;9.95;;;0.80;99.90;;;;;;5013962;28;20038;-76
2021/03/01 03:37:05;;;;;;;23.65;11.00;;;0.80;99.90;;;;;;5002624;28;20041;-76
2021/03/01 03:39:36;;;;;;;28.08;11.40;;;0.80;99.90;;;;;;5002886;28;20042;-76
2021/03/01 03:42:03;;;;;;;33.20;11.52;;;0.80;99.90;;;;;;5003226;28;20048;-74
2021/03/01 03:44:31;;;;;;;26.70;11.15;;;0.70;99.90;;;;;;5003222;28;20033;-76
2021/03/01 03:46:58;;;;;;;23.67;10.15;;;0.70;99.90;;;;;;5004304;28;20033;-76
2021/03/01 03:49:26;;;;;;;25.25;10.50;;;0.70;99.90;;;;;;5003321;28;20044;-76
2021/03/01 03:51:56;;;;;;;27.40;11.55;;;0.70;99.90;;;;;;5003067;28;20140;-76
2021/03/01 03:54:25;;;;;;;30.73;12.65;;;0.60;99.90;;;;;;5003220;28;20082;-76
2021/03/01 03:56:56;;;;;;;24.73;12.05;;;0.60;99.90;;;;;;5004638;28;20029;-75
2021/03/01 03:59:27;;;;;;;31.25;12.13;;;0.60;99.90;;;;;;5002540;28;20053;-76
2021/03/01 04:01:54;;;;;;;27.25;10.60;;;0.60;99.90;;;;;;5001966;28;20038;-77
2021/03/01 04:04:23;;;;;;;25.73;10.68;;;0.60;99.90;;;;;;5006176;28;20064;-76
2021/03/01 04:06:50;;;;;;;27.48;11.05;;;0.60;99.90;;;;;;5004244;28;20037;-76
2021/03/01 04:09:18;;;;;;;22.60;10.55;;;0.60;99.90;;;;;;5004000;28;20494;-76
2021/03/01 04:11:44;;;;;;;29.77;11.13;;;0.60;99.90;;;;;;5010018;28;21482;-77
2021/03/01 04:14:16;;;;;;;24.67;10.25;;;0.60;99.90;;;;;;5008291;28;20034;-79
2021/03/01 04:16:45;;;;;;;26.60;10.52;;;0.60;99.90;;;;;;5006299;28;20117;-77
2021/03/01 04:19:13;;;;;;;28.10;9.88;;;0.50;99.90;;;;;;5007926;28;20148;-79
2021/03/01 04:21:40;;;;;;;23.38;10.20;;;0.60;99.90;;;;;;5005471;28;20048;-79
2021/03/01 04:24:08;;;;;;;24.25;10.77;;;0.50;99.90;;;;;;5006557;28;20057;-78
2021/03/01 04:26:34;;;;;;;27.15;11.32;;;0.50;99.90;;;;;;5004034;28;20038;-78
2021/03/01 04:29:01;;;;;;;30.23;10.93;;;0.40;99.90;;;;;;5006081;28;20088;-78
2021/03/01 04:31:28;;;;;;;27.42;11.27;;;0.40;99.90;;;;;;5006866;28;20030;-78
2021/03/01 04:33:55;;;;;;;31.60;11.50;;;0.40;99.90;;;;;;5007522;28;20726;-78
2021/03/01 04:36:23;;;;;;;33.28;12.02;;;0.40;99.90;;;;;;5014268;28;20049;-78
2021/03/01 04:38:49;;;;;;;27.17;11.70;;;0.40;99.90;;;;;;5005092;28;20037;-78
2021/03/01 04:41:16;;;;;;;26.08;11.07;;;0.30;99.90;;;;;;5005535;28;20076;-78
2021/03/01 04:43:42;;;;;;;31.02;11.85;;;0.40;99.90;;;;;;5008291;28;20053;-78
2021/03/01 04:46:08;;;;;;;23.73;10.63;;;0.30;99.90;;;;;;5010312;28;20037;-78
2021/03/01 04:48:35;;;;;;;29.33;11.45;;;0.40;99.90;;;;;;5000697;28;22611;-78
2021/03/01 04:51:01;;;;;;;24.08;11.25;;;0.40;99.90;;;;;;5008825;28;20041;-78
2021/03/01 04:53:28;;;;;;;23.08;10.70;;;0.40;99.90;;;;;;5007233;28;20052;-78
2021/03/01 04:55:55;;;;;;;27.65;11.82;;;0.30;99.90;;;;;;5005296;28;20034;-78
2021/03/01 04:58:22;;;;;;;31.95;11.50;;;0.30;99.90;;;;;;5006243;28;20160;-78
2021/03/01 05:00:48;;;;;;;23.45;10.85;;;0.30;99.90;;;;;;5007887;28;20463;-78
2021/03/01 05:03:14;;;;;;;29.35;11.68;;;0.30;99.90;;;;;;5008982;28;20124;-78
2021/03/01 05:05:41;;;;;;;29.98;12.02;;;0.30;99.90;;;;;;5001871;28;20033;-78
2021/03/01 05:08:11;;;;;;;23.33;10.82;;;0.20;99.90;;;;;;5005105;28;20041;-78
2021/03/01 05:10:39;;;;;;;27.65;11.68;;;0.20;99.90;;;;;;5006481;28;20033;-77
2021/03/01 05:13:05;;;;;;;26.50;11.13;;;0.20;99.90;;;;;;5007010;28;20037;-77
2021/03/01 05:15:30;;;;;;;34.42;12.45;;;0.20;99.90;;;;;;5005711;28;20081;-78
2021/03/01 05:18:00;;;;;;;29.55;11.82;;;0.20;99.90;;;;;;5018512;28;20069;-78
2021/03/01 05:20:26;;;;;;;31.50;11.60;;;0.20;99.90;;;;;;5003584;28;20478;-78
2021/03/01 05:22:51;;;;;;;28.45;10.52;;;0.20;99.90;;;;;;5007667;28;20064;-78
2021/03/01 05:25:17;;;;;;;26.80;11.23;;;0.20;99.90;;;;;;5005882;28;20080;-78
2021/03/01 05:27:43;;;;;;;28.90;11.90;;;0.20;99.90;;;;;;5003927;28;20038;-78
2021/03/01 05:30:10;;;;;;;26.10;11.15;;;0.20;99.90;;;;;;5006844;28;20038;-77
2021/03/01 05:32:37;;;;;;;25.73;10.95;;;0.20;99.90;;;;;;5006996;28;20086;-77
2021/03/01 05:35:06;;;;;;;32.25;11.15;;;0.20;99.90;;;;;;5013824;28;20034;-79
2021/03/01 05:37:32;;;;;;;35.42;11.88;;;0.20;99.90;;;;;;5007090;28;20038;-77
2021/03/01 05:39:57;;;;;;;31.60;12.85;;;0.20;99.90;;;;;;5009366;28;20033;-77
2021/03/01 05:42:25;;;;;;;36.88;12.68;;;0.10;99.90;;;;;;5005143;28;20037;-78
2021/03/01 05:44:52;;;;;;;31.25;12.15;;;0.10;99.90;;;;;;5005433;28;20039;-78
2021/03/01 05:47:19;;;;;;;26.83;11.15;;;0.10;99.90;;;;;;5006704;28;20033;-78
2021/03/01 05:49:45;;;;;;;29.35;11.98;;;0.10;99.90;;;;;;5008535;28;20393;-79
2021/03/01 05:52:15;;;;;;;32.70;11.90;;;0.10;99.90;;;;;;5005502;28;20037;-77
2021/03/01 05:54:43;;;;;;;27.08;11.20;;;0.10;99.90;;;;;;5006838;28;20132;-77
2021/03/01 05:57:09;;;;;;;26.70;11.95;;;0.10;99.90;;;;;;5003868;28;20038;-77
2021/03/01 05:59:35;;;;;;;25.38;10.73;;;0.10;99.90;;;;;;5014247;28;20037;-78
2021/03/01 06:02:00;;;;;;;28.42;11.48;;;0.10;99.90;;;;;;5005373;28;20140;-77
2021/03/01 06:04:27;;;;;;;29.65;12.70;;;0.00;99.90;;;;;;5011982;28;20030;-77
2021/03/01 06:06:52;;;;;;;33.78;11.48;;;0.10;99.90;;;;;;5019173;28;20026;-76
2021/03/01 06:09:18;;;;;;;27.63;11.43;;;0.10;99.90;;;;;;5000812;28;20040;-76
2021/03/01 06:11:47;;;;;;;31.35;11.73;;;0.10;99.90;;;;;;5004956;28;20044;-79
2021/03/01 06:14:12;;;;;;;38.67;12.48;;;0.10;99.90;;;;;;4999659;28;20057;-76
2021/03/01 06:17:11;;;;;;;31.48;12.98;;;0.10;99.90;;;;;;5002149;28;20950;-78
2021/03/01 06:19:57;;;;;;;31.90;11.60;;;0.10;99.90;;;;;;5003833;28;20038;-78
2021/03/01 06:22:38;;;;;;;33.85;13.10;;;0.20;99.90;;;;;;5015817;28;20136;-77
2021/03/01 06:25:11;;;;;;;28.83;13.05;;;0.20;99.90;;;;;;5000540;28;20157;-76
2021/03/01 06:27:49;;;;;;;28.77;11.57;;;0.20;99.90;;;;;;4999651;28;20112;-78
2021/03/01 06:30:15;;;;;;;31.42;12.38;;;0.30;99.90;;;;;;5011645;28;20029;-80
2021/03/01 06:32:41;;;;;;;49.28;13.15;;;0.30;99.90;;;;;;5008281;28;20044;-78
2021/03/01 06:35:27;;;;;;;37.63;13.32;;;0.40;99.90;;;;;;5009133;28;20029;-78
2021/03/01 06:38:11;;;;;;;31.75;13.68;;;0.40;99.90;;;;;;5001651;28;20169;-77
2021/03/01 06:40:37;;;;;;;31.80;13.55;;;0.40;99.90;;;;;;5002005;28;20042;-78
2021/03/01 06:43:10;;;;;;;33.45;14.93;;;0.50;99.90;;;;;;5006877;28;20056;-77
2021/03/01 06:45:35;;;;;;;35.72;13.32;;;0.50;99.90;;;;;;4999250;28;20864;-77
2021/03/01 06:48:02;;;;;;;35.38;13.23;;;0.60;99.90;;;;;;4999698;28;20041;-79
2021/03/01 06:50:33;;;;;;;31.30;13.13;;;0.60;99.90;;;;;;4999445;28;20513;-78
2021/03/01 06:53:11;;;;;;;46.38;13.65;;;0.70;99.90;;;;;;5004261;28;20194;-78
2021/03/01 06:56:10;;;;;;;33.03;12.85;;;0.80;99.90;;;;;;5009256;28;20578;-79
2021/03/01 06:58:41;;;;;;;36.83;13.77;;;0.80;99.90;;;;;;5001972;28;20138;-80
2021/03/01 07:01:07;;;;;;;42.08;13.40;;;1.00;99.90;;;;;;5002493;28;20094;-78
2021/03/01 07:03:33;;;;;;;30.63;12.25;;;1.00;99.90;;;;;;5004453;28;20034;-78
2021/03/01 07:06:01;;;;;;;34.90;14.45;;;1.20;99.90;;;;;;5005295;28;20041;-79
2021/03/01 07:08:37;;;;;;;46.03;13.63;;;1.30;99.90;;;;;;5005993;28;20034;-78
2021/03/01 07:11:18;;;;;;;42.15;13.30;;;1.40;99.90;;;;;;5004936;28;20454;-79
2021/03/01 07:13:43;;;;;;;31.15;13.20;;;1.50;99.90;;;;;;5006521;28;20037;-79
2021/03/01 07:16:10;;;;;;;32.00;13.43;;;1.60;99.90;;;;;;5006167;28;20037;-78
2021/03/01 07:18:35;;;;;;;35.65;13.30;;;1.80;99.90;;;;;;5004584;28;20129;-80
2021/03/01 07:21:02;;;;;;;39.33;13.43;;;2.00;99.90;;;;;;5005156;28;20401;-79
2021/03/01 07:23:28;;;;;;;30.65;13.77;;;2.10;99.90;;;;;;5006528;28;20043;-78
2021/03/01 07:25:54;;;;;;;35.90;14.25;;;2.30;99.90;;;;;;5004427;28;20498;-78
2021/03/01 07:28:21;;;;;;;38.75;14.07;;;2.40;99.90;;;;;;5004014;28;20436;-79
2021/03/01 07:30:49;;;;;;;30.00;12.18;;;3.00;99.90;;;;;;5005811;28;20118;-78
2021/03/01 07:33:16;;;;;;;29.02;13.07;;;3.60;99.90;;;;;;5004812;28;20088;-78
2021/03/01 07:35:42;;;;;;;29.63;12.57;;;3.80;99.90;;;;;;5003664;28;20145;-79
2021/03/01 07:38:09;;;;;;;40.15;13.27;;;4.10;99.90;;;;;;5007213;28;20053;-77
2021/03/01 07:40:35;;;;;;;50.03;12.50;;;4.90;99.90;;;;;;5006249;28;20088;-77
2021/03/01 07:43:02;;;;;;;39.67;12.88;;;5.70;97.00;;;;;;5009024;28;20041;-79
2021/03/01 07:45:28;;;;;;;39.10;13.20;;;6.10;89.20;;;;;;5005658;28;20052;-78
2021/03/01 07:47:54;;;;;;;39.38;12.07;;;6.30;85.60;;;;;;5003170;28;20045;-79
2021/03/01 07:50:38;;;;;;;43.47;14.07;;;6.30;82.30;;;;;;5002292;28;20037;-79
2021/03/01 07:53:04;;;;;;;34.75;13.05;;;6.30;81.60;;;;;;5007364;28;20630;-76
2021/03/01 07:55:29;;;;;;;41.22;13.43;;;5.80;82.80;;;;;;5007643;28;20061;-78
2021/03/01 07:58:04;;;;;;;33.60;12.27;;;6.00;82.60;;;;;;5010888;28;20038;-79
2021/03/01 08:00:34;;;;;;;27.73;12.18;;;5.70;83.30;;;;;;5004308;28;20038;-78
2021/03/01 08:03:01;;;;;;;29.85;13.65;;;5.90;82.10;;;;;;5011133;28;20045;-82
2021/03/01 08:05:30;;;;;;;32.45;13.18;;;6.10;81.50;;;;;;5015314;28;20033;-81
2021/03/01 08:07:57;;;;;;;28.00;13.02;;;5.90;79.90;;;;;;5001665;28;20099;-82
2021/03/01 08:10:28;;;;;;;30.88;12.45;;;5.70;80.10;;;;;;5004519;28;20044;-81
2021/03/01 08:12:57;;;;;;;34.90;13.43;;;6.10;78.10;;;;;;5002523;28;20061;-80
2021/03/01 08:15:28;;;;;;;40.25;14.35;;;6.40;76.40;;;;;;5005877;28;20125;-81
2021/03/01 08:17:54;;;;;;;33.85;13.68;;;6.70;75.50;;;;;;5004679;28;20418;-80
2021/03/01 08:20:28;;;;;;;38.95;13.90;;;6.70;75.60;;;;;;5016767;28;20851;-83
2021/03/01 08:23:05;;;;;;;30.88;13.40;;;6.90;75.50;;;;;;5009069;28;20038;-81
2021/03/01 08:28:23;;;;;;;34.95;12.35;;;7.70;70.90;;;;;;5005520;28;20089;-78
2021/03/01 08:30:52;;;;;;;30.67;11.90;;;8.20;68.70;;;;;;5008004;28;20052;-79
2021/03/01 08:33:17;;;;;;;32.80;13.32;;;7.70;66.50;;;;;;5010050;28;20218;-79
2021/03/01 08:35:52;;;;;;;39.38;12.38;;;7.90;68.00;;;;;;5010874;28;20057;-79
2021/03/01 08:38:45;;;;;;;32.40;12.65;;;7.80;68.40;;;;;;5009734;28;21077;-78
2021/03/01 08:41:37;;;;;;;33.83;13.15;;;7.90;67.60;;;;;;5008498;28;20065;-80
2021/03/01 08:44:19;;;;;;;31.77;13.70;;;8.30;67.80;;;;;;5010277;28;20045;-77
2021/03/01 08:46:46;;;;;;;34.83;12.85;;;9.40;64.60;;;;;;5009360;28;20033;-78
2021/03/01 08:49:20;;;;;;;40.97;13.15;;;10.00;57.90;;;;;;5007991;28;20038;-78
2021/03/01 08:51:47;;;;;;;27.80;11.40;;;10.60;55.80;;;;;;5006819;28;20060;-78
2021/03/01 08:54:13;;;;;;;26.10;11.23;;;10.40;50.20;;;;;;5007203;28;20494;-78
2021/03/01 08:56:38;;;;;;;28.15;11.13;;;9.80;52.60;;;;;;5004863;28;20119;-79
2021/03/01 08:59:16;;;;;;;26.23;12.15;;;9.90;54.30;;;;;;5007266;28;20041;-80
2021/03/01 09:01:49;;;;;;;33.25;11.60;;;9.90;54.40;;;;;;5006465;28;20053;-80
2021/03/01 09:04:14;;;;;;;25.63;11.05;;;10.10;52.70;;;;;;5009161;28;20068;-78
2021/03/01 09:06:40;;;;;;;21.83;10.13;;;10.40;52.40;;;;;;5008237;28;20050;-78
2021/03/01 09:09:08;;;;;;;26.10;10.48;;;11.10;48.50;;;;;;5008482;28;20037;-78
2021/03/01 09:11:36;;;;;;;20.58;10.18;;;11.20;44.20;;;;;;5008318;28;20033;-79
2021/03/01 09:14:04;;;;;;;24.25;10.23;;;12.00;41.10;;;;;;5009662;28;20076;-78
2021/03/01 09:16:33;;;;;;;24.38;10.52;;;12.50;40.20;;;;;;5012916;28;20041;-77
2021/03/01 09:19:04;;;;;;;29.50;10.90;;;13.30;36.80;;;;;;5005199;28;20042;-77
2021/03/01 09:21:32;;;;;;;18.75;9.98;;;14.20;33.90;;;;;;5004104;28;20046;-78
2021/03/01 09:23:58;;;;;;;28.40;10.70;;;15.00;30.70;;;;;;5008493;28;20036;-80
2021/03/01 09:26:37;;;;;;;18.25;10.07;;;15.60;29.00;;;;;;5009955;28;20560;-80
2021/03/01 09:29:11;;;;;;;18.35;9.63;;;15.10;28.40;;;;;;5010169;28;20041;-79
2021/03/01 09:31:42;;;;;;;21.88;10.40;;;15.50;26.10;;;;;;5007354;28;20060;-80
2021/03/01 09:34:09;;;;;;;24.60;10.32;;;15.80;27.20;;;;;;5005032;28;20552;-80
2021/03/01 09:36:35;;;;;;;26.67;10.38;;;16.30;26.20;;;;;;5006352;28;20095;-81
2021/03/01 09:39:05;;;;;;;19.65;10.43;;;16.90;24.60;;;;;;5003885;28;20533;-80
2021/03/01 09:41:37;;;;;;;13.55;8.55;;;17.00;23.90;;;;;;5001107;28;20073;-79
2021/03/01 09:44:04;;;;;;;20.58;9.95;;;16.50;23.40;;;;;;5004969;28;20573;-81
2021/03/01 09:46:30;;;;;;;22.63;9.35;;;16.50;24.00;;;;;;5002157;28;20116;-80
2021/03/01 09:49:04;;;;;;;21.27;9.15;;;16.20;24.20;;;;;;5012958;28;20075;-80
2021/03/01 09:51:30;;;;;;;15.55;9.55;;;15.90;23.80;;;;;;5000930;28;22575;-79
2021/03/01 09:54:01;;;;;;;18.95;9.40;;;14.70;24.80;;;;;;5007715;28;20045;-78
2021/03/01 09:56:41;;;;;;;17.90;9.43;;;15.10;25.50;;;;;;5000871;28;20029;-80
2021/03/01 09:59:06;;;;;;;17.80;9.38;;;14.60;25.70;;;;;;5004343;28;20076;-80
2021/03/01 10:01:32;;;;;;;21.20;9.98;;;15.40;25.10;;;;;;5003611;28;20034;-79
2021/03/01 10:03:58;;;;;;;19.52;9.85;;;16.20;24.60;;;;;;5005649;28;20138;-79
2021/03/01 10:06:35;;;;;;;18.27;8.52;;;16.70;23.30;;;;;;5000489;28;20038;-80
2021/03/01 10:09:05;;;;;;;13.63;8.00;;;17.40;23.30;;;;;;5003262;28;20041;-80
2021/03/01 10:11:30;;;;;;;18.90;8.75;;;17.50;20.80;;;;;;5001759;28;20111;-80
2021/03/01 10:14:10;;;;;;;16.55;8.15;;;16.70;21.80;;;;;;5004889;28;20124;-80
2021/03/01 10:16:38;;;;;;;17.58;8.52;;;17.40;21.10;;;;;;5003307;28;20246;-80
2021/03/01 10:19:23;;;;;;;15.43;8.63;;;17.60;20.10;;;;;;4999410;28;20844;-80
2021/03/01 10:21:50;;;;;;;15.00;8.18;;;17.60;20.50;;;;;;5001320;28;20517;-79
2021/03/01 10:24:20;;;;;;;15.73;9.10;;;17.80;20.90;;;;;;4999735;28;20065;-78
2021/03/01 10:26:58;;;;;;;19.27;8.88;;;17.90;19.90;;;;;;5004044;28;20622;-80
2021/03/01 10:29:35;;;;;;;27.38;8.73;;;18.00;19.30;;;;;;5002068;28;20030;-80
2021/03/01 10:32:03;;;;;;;20.25;8.80;;;18.00;18.60;;;;;;5002771;28;20152;-80
2021/03/01 10:34:38;;;;;;;19.30;8.50;;;18.50;18.70;;;;;;4999778;28;20065;-79
2021/03/01 10:37:09;;;;;;;18.83;9.75;;;17.80;18.60;;;;;;5001298;28;20045;-80
2021/03/01 10:39:47;;;;;;;17.38;8.50;;;17.90;19.50;;;;;;5003253;28;20045;-80
2021/03/01 10:42:14;;;;;;;20.02;8.60;;;17.40;19.30;;;;;;5003712;28;20057;-80
2021/03/01 10:44:41;;;;;;;12.73;8.07;;;17.50;19.20;;;;;;5002506;28;20507;-81
2021/03/01 10:47:30;;;;;;;19.58;8.60;;;16.90;19.40;;;;;;4999531;28;20543;-80
2021/03/01 10:50:01;;;;;;;12.68;8.13;;;16.40;19.80;;;;;;5003802;28;20038;-81
2021/03/01 10:52:28;;;;;;;14.07;8.05;;;16.10;20.60;;;;;;5003678;28;20406;-79
2021/03/01 10:54:54;;;;;;;18.73;8.32;;;15.30;21.80;;;;;;5001793;28;20999;-77
2021/03/01 10:57:22;;;;;;;31.48;8.93;;;14.70;22.00;;;;;;5001872;28;20096;-76
2021/03/01 10:59:50;;;;;;;17.52;8.88;;;14.50;23.30;;;;;;5004049;28;20049;-76
2021/03/01 11:02:17;;;;;;;16.95;7.97;;;13.60;25.00;;;;;;5006485;28;20132;-76
2021/03/01 11:04:43;;;;;;;20.25;8.43;;;13.20;25.30;;;;;;5003480;28;20038;-75
2021/03/01 11:07:09;;;;;;;15.73;8.77;;;12.60;26.20;;;;;;5002192;28;20041;-77
2021/03/01 11:09:34;;;;;;;18.15;8.93;;;12.70;26.00;;;;;;5006488;28;20355;-77
2021/03/01 11:12:02;;;;;;;16.52;8.05;;;12.80;26.80;;;;;;5005020;28;20057;-77
2021/03/01 11:14:28;;;;;;;19.73;9.02;;;12.70;26.70;;;;;;5003331;28;20041;-77
2021/03/01 11:16:53;;;;;;;28.77;9.13;;;12.60;27.10;;;;;;5006019;28;20037;-77
2021/03/01 11:19:19;;;;;;;22.98;10.18;;;12.60;28.20;;;;;;5005172;28;20038;-76
2021/03/01 11:21:46;;;;;;;17.85;8.80;;;12.60;28.20;;;;;;5008210;28;20529;-78
2021/03/01 11:24:13;;;;;;;17.00;8.82;;;12.40;28.10;;;;;;5005132;28;20030;-78
2021/03/01 11:26:38;;;;;;;14.43;8.45;;;12.20;27.90;;;;;;5005860;28;20710;-77
2021/03/01 11:29:04;;;;;;;17.17;8.25;;;12.30;28.50;;;;;;5000530;28;20038;-78
2021/03/01 11:31:32;;;;;;;16.50;8.40;;;12.50;28.30;;;;;;5000139;28;20637;-77
2021/03/01 11:33:59;;;;;;;20.33;8.75;;;12.60;28.60;;;;;;5008886;28;20490;-78
2021/03/01 11:36:25;;;;;;;18.00;8.70;;;12.60;28.30;;;;;;4996229;28;20038;-77
2021/03/01 11:38:50;;;;;;;18.48;8.57;;;12.70;28.20;;;;;;5008734;28;20056;-78
2021/03/01 11:41:16;;;;;;;15.48;8.25;;;12.50;28.30;;;;;;4999583;28;20128;-78
2021/03/01 11:43:42;;;;;;;15.98;8.13;;;12.30;28.60;;;;;;5000630;28;20042;-79
2021/03/01 11:46:09;;;;;;;17.92;8.02;;;12.20;29.00;;;;;;4999568;28;20503;-78
2021/03/01 11:48:35;;;;;;;12.70;6.55;;;12.50;28.40;;;;;;5004832;28;20042;-79
2021/03/01 11:51:00;;;;;;;16.67;7.57;;;12.60;28.20;;;;;;5008847;28;20038;-78
2021/03/01 11:53:26;;;;;;;19.83;7.55;;;12.80;28.40;;;;;;5008242;28;20513;-77
2021/03/01 11:55:51;;;;;;;16.23;7.65;;;12.70;26.90;;;;;;5011690;28;20049;-77
2021/03/01 11:58:17;;;;;;;18.25;7.20;;;12.90;27.00;;;;;;5007433;28;20083;-77
2021/03/01 12:00:42;;;;;;;16.77;7.05;;;12.90;26.40;;;;;;5007761;28;20176;-77
2021/03/01 12:03:11;;;;;;;13.40;6.60;;;13.00;26.30;;;;;;5008694;28;20703;-78
2021/03/01 12:05:39;;;;;;;21.30;6.82;;;13.10;26.60;;;;;;5005946;28;20140;-78
2021/03/01 12:08:06;;;;;;;14.90;5.78;;;13.20;26.50;;;;;;5007819;28;20030;-80
2021/03/01 12:10:33;;;;;;;9.95;5.88;;;13.40;24.30;;;;;;5006775;28;20081;-81
2021/03/01 12:12:58;;;;;;;12.48;5.38;;;13.70;24.10;;;;;;5010655;28;20076;-79
2021/03/01 12:15:24;;;;;;;9.88;5.07;;;13.70;22.50;;;;;;5001161;28;20153;-80
2021/03/01 12:17:50;;;;;;;10.40;5.38;;;13.70;22.70;;;;;;5000609;28;20445;-81
2021/03/01 12:20:16;;;;;;;11.00;5.47;;;13.70;22.10;;;;;;5002396;28;20120;-80
2021/03/01 12:22:42;;;;;;;10.43;4.10;;;13.70;21.80;;;;;;4996626;28;20048;-81
2021/03/01 12:25:08;;;;;;;8.20;3.97;;;13.90;21.40;;;;;;4998836;28;20533;-80
2021/03/01 12:27:34;;;;;;;13.38;4.63;;;13.90;21.20;;;;;;5002352;28;20038;-80
2021/03/01 12:29:59;;;;;;;7.28;3.92;;;14.20;21.60;;;;;;5001462;28;20046;-81
2021/03/01 12:32:25;;;;;;;12.27;5.55;;;14.20;20.60;;;;;;5004738;28;20344;-77
2021/03/01 12:34:51;;;;;;;12.95;4.97;;;14.30;21.20;;;;;;5002845;28;20121;-79
2021/03/01 12:37:20;;;;;;;11.15;4.70;;;14.40;20.60;;;;;;4996791;28;20061;-79
2021/03/01 12:39:49;;;;;;;8.20;3.88;;;14.20;19.50;;;;;;4993336;28;20574;-78
2021/03/01 12:42:15;;;;;;;7.25;3.72;;;14.40;20.40;;;;;;5003337;28;21017;-80
2021/03/01 12:44:41;;;;;;;7.07;3.85;;;14.40;20.20;;;;;;5018242;28;20041;-80
2021/03/01 12:47:07;;;;;;;10.43;4.38;;;14.40;20.10;;;;;;5001350;28;20038;-81